createdAt,value
2023-03-13T00:02:18.699Z,2.09
2023-03-13T00:04:55.267Z,2.09
2023-03-13T00:07:23.546Z,2.08
2023-03-13T00:09:51.809Z,2.07
2023-03-13T00:12:20.590Z,2.08
2023-03-13T00:14:48.788Z,2.09
2023-03-13T00:17:17.042Z,2.12
2023-03-13T00:19:45.254Z,2.15
2023-03-13T00:22:13.814Z,2.15
2023-03-13T00:24:42.167Z,2.13
2023-03-13T00:27:12.196Z,2.12
2023-03-13T00:29:40.411Z,2.12
2023-03-13T00:32:08.790Z,2.12
2023-03-13T00:34:37.641Z,2.14
2023-03-13T00:37:05.932Z,2.15
2023-03-13T00:39:34.242Z,2.16
2023-03-13T00:42:04.132Z,2.15
2023-03-13T00:44:32.318Z,2.13
2023-03-13T00:47:00.536Z,2.11
2023-03-13T00:49:28.838Z,2.13
2023-03-13T00:51:57.318Z,2.13
2023-03-13T00:54:25.563Z,2.14
2023-03-13T00:56:53.778Z,2.14
2023-03-13T00:59:22.136Z,2.15
2023-03-13T01:01:50.424Z,2.16
2023-03-13T01:04:18.748Z,2.18
2023-03-13T01:06:47.112Z,2.21
2023-03-13T01:09:16.579Z,2.24
2023-03-13T01:11:45.842Z,2.27
2023-03-13T01:14:17.728Z,2.28
2023-03-13T01:16:45.968Z,2.27
2023-03-13T01:19:17.082Z,2.26
2023-03-13T01:21:45.945Z,2.26
2023-03-13T01:24:14.619Z,2.27
2023-03-13T01:26:42.862Z,2.25
2023-03-13T01:29:14.576Z,2.26
2023-03-13T01:31:43.147Z,2.25
2023-03-13T01:34:11.605Z,2.24
2023-03-13T01:36:39.898Z,2.25
2023-03-13T01:39:08.294Z,2.26
2023-03-13T01:41:37.965Z,2.28
2023-03-13T01:44:06.519Z,2.30
2023-03-13T01:46:34.906Z,2.30
2023-03-13T01:49:25.287Z,2.28
2023-03-13T01:51:58.616Z,2.27
2023-03-13T01:54:39.527Z,2.26
2023-03-13T01:57:34.094Z,2.27
2023-03-13T02:00:09.246Z,2.28
2023-03-13T02:02:41.183Z,2.28
2023-03-13T02:05:09.955Z,2.27
2023-03-13T02:07:54.189Z,2.28
2023-03-13T02:10:25.194Z,2.29
2023-03-13T02:12:54.145Z,2.31
2023-03-13T02:15:26.106Z,2.33
2023-03-13T02:17:56.344Z,2.34
2023-03-13T02:20:24.701Z,2.34
2023-03-13T02:23:04.931Z,2.33
2023-03-13T02:25:48.380Z,2.35
2023-03-13T02:28:21.408Z,2.36
2023-03-13T02:30:52.218Z,2.38
2023-03-13T02:33:22.081Z,2.40
2023-03-13T02:35:50.390Z,2.41
2023-03-13T02:38:25.584Z,2.42
2023-03-13T02:40:56.092Z,2.44
2023-03-13T02:43:33.701Z,2.48
2023-03-13T02:46:14.653Z,2.53
2023-03-13T02:48:51.126Z,2.56
2023-03-13T02:51:31.865Z,2.57
2023-03-13T02:54:05.354Z,2.58
2023-03-13T02:56:36.604Z,2.60
2023-03-13T02:59:04.921Z,2.64
2023-03-13T03:01:33.265Z,2.67
2023-03-13T03:04:01.583Z,2.68
2023-03-13T03:06:29.896Z,2.69
2023-03-13T03:08:58.126Z,2.70
2023-03-13T03:11:26.486Z,2.71
2023-03-13T03:13:55.034Z,2.72
2023-03-13T03:16:23.256Z,2.76
2023-03-13T03:18:51.600Z,2.80
2023-03-13T03:21:21.474Z,2.82
2023-03-13T03:23:51.014Z,2.84
2023-03-13T03:26:19.730Z,2.86
2023-03-13T03:28:47.969Z,2.89
2023-03-13T03:31:17.379Z,2.92
2023-03-13T03:33:46.656Z,2.95
2023-03-13T03:36:20.866Z,2.98
2023-03-13T03:38:49.257Z,2.99
2023-03-13T03:41:19.345Z,3.00
2023-03-13T03:43:47.987Z,3.03
2023-03-13T03:46:16.383Z,3.06
2023-03-13T03:48:44.641Z,3.11
2023-03-13T03:51:13.533Z,3.14
2023-03-13T03:53:41.909Z,3.17
2023-03-13T03:56:10.175Z,3.19
2023-03-13T03:58:38.461Z,3.20
2023-03-13T04:01:06.832Z,3.22
2023-03-13T04:03:35.124Z,3.26
2023-03-13T04:06:03.438Z,3.30
2023-03-13T04:08:31.789Z,3.30
2023-03-13T04:11:03.399Z,3.30
2023-03-13T04:13:31.634Z,3.32
2023-03-13T04:15:59.836Z,3.34
2023-03-13T04:18:28.159Z,3.37
2023-03-13T04:21:04.414Z,3.40
2023-03-13T04:23:32.871Z,3.43
2023-03-13T04:26:01.071Z,3.45
2023-03-13T04:28:29.328Z,3.46
2023-03-13T04:30:58.501Z,3.48
2023-03-13T04:33:27.480Z,3.50
2023-03-13T04:35:55.757Z,3.54
2023-03-13T04:38:24.097Z,3.57
2023-03-13T04:40:52.330Z,3.60
2023-03-13T04:43:20.632Z,3.61
2023-03-13T04:45:50.294Z,3.64
2023-03-13T04:48:19.008Z,3.67
2023-03-13T04:50:48.780Z,3.69
2023-03-13T04:53:17.139Z,3.74
2023-03-13T04:55:45.660Z,3.77
2023-03-13T04:58:13.897Z,3.79
2023-03-13T05:00:42.516Z,3.80
2023-03-13T05:03:10.842Z,3.82
2023-03-13T05:05:39.024Z,3.84
2023-03-13T05:08:08.955Z,3.86
2023-03-13T05:10:37.373Z,3.90
2023-03-13T05:13:05.704Z,3.92
2023-03-13T05:15:34.096Z,3.93
2023-03-13T05:18:02.376Z,3.93
2023-03-13T05:20:30.661Z,3.95
2023-03-13T05:22:58.995Z,3.97
2023-03-13T05:25:27.360Z,3.99
2023-03-13T05:27:55.654Z,4.02
2023-03-13T05:30:24.375Z,4.02
2023-03-13T05:32:52.759Z,4.02
2023-03-13T05:35:23.694Z,4.02
2023-03-13T05:37:52.263Z,4.03
2023-03-13T05:40:20.682Z,4.05
2023-03-13T05:42:49.088Z,4.07
2023-03-13T05:45:17.632Z,4.10
2023-03-13T05:47:46.482Z,4.11
2023-03-13T05:50:14.996Z,4.10
2023-03-13T05:52:43.678Z,4.12
2023-03-13T05:55:11.907Z,4.14
2023-03-13T05:57:40.125Z,4.17
2023-03-13T06:00:09.355Z,4.19
2023-03-13T06:02:37.568Z,4.21
2023-03-13T06:05:06.664Z,4.21
2023-03-13T06:07:35.148Z,4.21
2023-03-13T06:10:04.722Z,4.23
2023-03-13T06:12:33.037Z,4.25
2023-03-13T06:15:01.348Z,4.28
2023-03-13T06:17:29.734Z,4.30
2023-03-13T06:19:57.965Z,4.31
2023-03-13T06:22:26.388Z,4.32
2023-03-13T06:24:54.687Z,4.35
2023-03-13T06:27:22.935Z,4.37
2023-03-13T06:29:51.214Z,4.41
2023-03-13T06:32:19.553Z,4.45
2023-03-13T06:34:47.945Z,4.47
2023-03-13T06:37:16.291Z,4.49
2023-03-13T06:39:44.634Z,4.51
2023-03-13T06:42:12.876Z,4.55
2023-03-13T06:44:42.204Z,4.60
2023-03-13T06:47:10.488Z,4.62
2023-03-13T06:49:38.746Z,4.65
2023-03-13T06:52:07.142Z,4.66
2023-03-13T06:54:35.520Z,4.69
2023-03-13T06:57:03.877Z,4.71
2023-03-13T06:59:32.361Z,4.75
2023-03-13T07:02:00.649Z,4.78
2023-03-13T07:04:28.995Z,4.80
2023-03-13T07:06:57.238Z,4.81
2023-03-13T07:09:25.448Z,4.83
2023-03-13T07:11:53.755Z,4.86
2023-03-13T07:14:21.980Z,4.90
2023-03-13T07:16:50.300Z,4.95
2023-03-13T07:19:18.765Z,4.98
2023-03-13T07:21:47.102Z,5.01
2023-03-13T07:24:15.463Z,5.04
2023-03-13T07:26:54.478Z,5.06
2023-03-13T07:29:32.100Z,5.08
2023-03-13T07:32:00.410Z,5.11
2023-03-13T07:34:28.685Z,5.15
2023-03-13T07:36:56.901Z,5.18
2023-03-13T07:39:25.333Z,5.19
2023-03-13T07:41:53.520Z,5.20
2023-03-13T07:44:21.795Z,5.22
2023-03-13T07:46:50.545Z,5.25
2023-03-13T07:49:18.739Z,5.28
2023-03-13T07:51:48.442Z,5.30
2023-03-13T07:54:16.813Z,5.31
2023-03-13T07:56:45.012Z,5.32
2023-03-13T07:59:13.239Z,5.34
2023-03-13T08:01:41.580Z,5.36
2023-03-13T08:04:14.442Z,5.39
2023-03-13T08:06:42.789Z,5.44
2023-03-13T08:09:11.320Z,5.45
2023-03-13T08:11:44.742Z,5.47
2023-03-13T08:14:13.661Z,5.48
2023-03-13T08:16:41.961Z,5.51
2023-03-13T08:19:10.438Z,5.54
2023-03-13T08:21:38.765Z,5.57
2023-03-13T08:24:09.319Z,5.61
2023-03-13T08:26:39.443Z,5.63
2023-03-13T08:29:11.194Z,5.64
2023-03-13T08:31:50.334Z,5.65
2023-03-13T08:34:19.739Z,5.67
2023-03-13T08:36:48.051Z,5.70
2023-03-13T08:39:18.798Z,5.72
2023-03-13T08:41:47.688Z,5.75
2023-03-13T08:44:18.543Z,5.77
2023-03-13T08:46:49.443Z,5.78
2023-03-13T08:49:17.964Z,5.80
2023-03-13T08:51:46.259Z,5.82
2023-03-13T08:54:15.144Z,5.84
2023-03-13T08:56:44.138Z,5.87
2023-03-13T08:59:12.868Z,5.91
2023-03-13T09:01:41.737Z,5.94
2023-03-13T09:04:10.079Z,5.96
2023-03-13T09:06:39.528Z,5.99
2023-03-13T09:09:09.048Z,6.01
2023-03-13T09:11:39.698Z,6.03
2023-03-13T09:14:10.146Z,6.06
2023-03-13T09:16:39.024Z,6.07
2023-03-13T09:19:07.411Z,6.14
2023-03-13T09:21:36.089Z,6.17
2023-03-13T09:24:04.912Z,6.20
2023-03-13T09:26:33.388Z,6.21
2023-03-13T09:29:01.998Z,6.21
2023-03-13T09:31:32.265Z,6.23
2023-03-13T09:34:01.908Z,6.25
2023-03-13T09:36:30.772Z,6.28
2023-03-13T09:39:00.202Z,6.30
2023-03-13T09:41:40.697Z,6.32
2023-03-13T09:44:22.944Z,6.33
2023-03-13T09:46:54.035Z,6.36
2023-03-13T09:49:41.336Z,6.37
2023-03-13T09:52:21.789Z,6.39
2023-03-13T09:54:53.093Z,6.41
2023-03-13T09:57:26.582Z,6.43
2023-03-13T10:00:02.782Z,6.44
2023-03-13T10:02:36.851Z,6.46
2023-03-13T10:05:08.238Z,6.46
2023-03-13T10:07:37.385Z,6.47
2023-03-13T10:10:13.952Z,6.47
2023-03-13T10:12:46.979Z,6.48
2023-03-13T10:15:45.616Z,6.49
2023-03-13T10:18:21.843Z,6.50
2023-03-13T10:20:53.552Z,6.52
2023-03-13T10:23:40.690Z,6.53
2023-03-13T10:26:29.904Z,6.52
2023-03-13T10:29:30.580Z,6.55
2023-03-13T10:32:00.327Z,6.56
2023-03-13T10:34:45.013Z,6.58
2023-03-13T10:37:20.456Z,6.60
2023-03-13T10:39:48.807Z,6.62
2023-03-13T10:42:33.880Z,6.65
2023-03-13T10:45:06.028Z,6.67
2023-03-13T10:47:38.064Z,6.67
2023-03-13T10:50:06.513Z,6.67
2023-03-13T10:52:43.396Z,6.69
2023-03-13T10:55:32.047Z,6.72
2023-03-13T10:58:03.554Z,6.75
2023-03-13T11:00:38.866Z,6.77
2023-03-13T11:03:18.581Z,6.79
2023-03-13T11:05:58.043Z,6.81
2023-03-13T11:08:29.719Z,6.82
2023-03-13T11:11:04.015Z,6.84
2023-03-13T11:13:43.934Z,6.85
2023-03-13T11:16:29.464Z,6.88
2023-03-13T11:19:19.697Z,6.89
2023-03-13T11:22:15.424Z,6.91
2023-03-13T11:25:08.512Z,6.94
2023-03-13T11:27:41.689Z,6.97
2023-03-13T11:30:23.043Z,7.00
2023-03-13T11:33:04.509Z,7.04
2023-03-13T11:35:45.099Z,7.06
2023-03-13T11:38:23.842Z,7.10
2023-03-13T11:41:05.448Z,7.13
2023-03-13T11:43:58.079Z,7.16
2023-03-13T11:46:33.351Z,7.20
2023-03-13T11:49:04.452Z,7.23
2023-03-13T11:51:50.657Z,7.27
2023-03-13T11:54:28.542Z,7.30
2023-03-13T11:57:13.938Z,7.32
2023-03-13T12:00:15.343Z,7.33
2023-03-13T12:03:15.209Z,7.34
2023-03-13T12:05:57.693Z,7.38
2023-03-13T12:08:37.743Z,7.39
2023-03-13T12:11:25.838Z,7.43
2023-03-13T12:13:57.113Z,7.46
2023-03-13T12:16:40.024Z,7.49
2023-03-13T12:19:15.338Z,7.53
2023-03-13T12:21:57.451Z,7.56
2023-03-13T12:24:35.445Z,7.60
2023-03-13T12:27:16.674Z,7.63
2023-03-13T12:29:57.006Z,7.67
2023-03-13T12:32:37.629Z,7.72
2023-03-13T12:35:29.622Z,7.76
2023-03-13T12:38:15.280Z,7.80
2023-03-13T12:41:21.001Z,7.83
2023-03-13T12:44:07.148Z,7.87
2023-03-13T12:47:08.751Z,7.91
2023-03-13T12:49:55.113Z,7.95
2023-03-13T12:52:56.225Z,7.99
2023-03-13T12:55:27.329Z,8.02
2023-03-13T12:58:01.791Z,8.05
2023-03-13T13:00:32.371Z,8.08
2023-03-13T13:03:11.148Z,8.12
2023-03-13T13:05:39.359Z,8.17
2023-03-13T13:08:25.895Z,8.21
2023-03-13T13:23:34.321Z,8.97
2023-03-13T13:26:30.665Z,9.08
2023-03-13T13:29:21.811Z,9.03
2023-03-13T13:31:55.213Z,8.98
2023-03-13T13:34:32.355Z,8.96
2023-03-13T13:37:23.226Z,8.92
2023-03-13T13:39:53.829Z,8.89
2023-03-13T13:42:31.585Z,8.87
2023-03-13T13:45:03.415Z,8.86
2023-03-13T13:47:33.844Z,8.88
2023-03-13T13:50:02.382Z,8.88
2023-03-13T13:52:38.434Z,8.89
2023-03-13T13:55:26.953Z,8.91
2023-03-13T13:58:14.452Z,8.92
2023-03-13T14:01:11.436Z,8.93
2023-03-13T14:03:43.766Z,8.94
2023-03-13T14:06:20.594Z,8.97
2023-03-13T14:08:54.587Z,9.00
2023-03-13T14:11:28.993Z,9.02
2023-03-13T14:14:20.636Z,9.04
2023-03-13T14:16:52.605Z,9.09
2023-03-13T14:19:36.889Z,9.11
2023-03-13T14:22:11.049Z,9.14
2023-03-13T14:24:39.588Z,9.17
2023-03-13T14:27:19.810Z,9.20
2023-03-13T14:30:09.694Z,9.25
2023-03-13T14:32:39.485Z,9.30
2023-03-13T14:35:10.326Z,9.33
2023-03-13T14:37:47.025Z,9.36
2023-03-13T14:40:20.392Z,9.40
2023-03-13T14:42:51.888Z,9.43
2023-03-13T14:45:32.892Z,9.49
2023-03-13T14:48:14.580Z,9.55
2023-03-13T14:50:43.243Z,9.60
2023-03-13T14:53:17.219Z,9.64
2023-03-13T14:55:46.455Z,9.65
2023-03-13T14:58:20.509Z,9.77
2023-03-13T15:00:49.940Z,9.82
2023-03-13T15:03:20.274Z,9.86
2023-03-13T15:06:07.781Z,9.88
2023-03-13T15:08:39.271Z,9.93
2023-03-13T15:11:42.512Z,9.96
2023-03-13T15:14:42.943Z,9.99
2023-03-13T15:17:16.882Z,10.03
2023-03-13T15:19:49.640Z,10.05
2023-03-13T15:22:20.313Z,10.09
2023-03-13T15:25:03.301Z,10.11
2023-03-13T15:27:33.991Z,10.13
2023-03-13T15:30:02.396Z,10.16
2023-03-13T15:32:34.768Z,10.19
2023-03-13T15:35:28.407Z,10.22
2023-03-13T15:37:58.890Z,10.25
2023-03-13T15:40:28.877Z,10.25
2023-03-13T15:42:57.205Z,10.26
2023-03-13T15:45:25.591Z,10.28
2023-03-13T15:47:54.090Z,10.31
2023-03-13T15:50:25.777Z,10.33
2023-03-13T15:52:54.488Z,10.35
2023-03-13T15:55:22.705Z,10.36
2023-03-13T15:57:51.027Z,10.37
2023-03-13T16:00:22.684Z,10.39
2023-03-13T16:02:51.236Z,10.41
2023-03-13T16:05:19.735Z,10.42
2023-03-13T16:07:47.985Z,10.41
2023-03-13T16:10:19.864Z,10.39
2023-03-13T16:12:48.249Z,10.39
2023-03-13T16:15:16.623Z,10.40
2023-03-13T16:17:44.873Z,10.41
2023-03-13T16:20:17.196Z,10.40
2023-03-13T16:22:45.649Z,10.40
2023-03-13T16:25:15.039Z,10.42
2023-03-13T16:27:43.727Z,10.44
2023-03-13T16:30:18.847Z,10.44
2023-03-13T16:32:47.324Z,10.43
2023-03-13T16:35:15.878Z,10.43
2023-03-13T16:37:45.141Z,10.43
2023-03-13T16:40:42.218Z,10.44
2023-03-13T16:43:13.287Z,10.44
2023-03-13T16:45:42.529Z,10.43
2023-03-13T16:48:18.892Z,10.43
2023-03-13T16:50:47.264Z,10.42
2023-03-13T16:53:15.468Z,10.43
2023-03-13T16:55:43.725Z,10.44
2023-03-13T16:58:12.967Z,10.43
2023-03-13T17:00:41.188Z,10.42
2023-03-13T17:03:09.544Z,10.41
2023-03-13T17:05:38.140Z,10.42
2023-03-13T17:08:06.440Z,10.43
2023-03-13T17:10:35.046Z,10.43
2023-03-13T17:13:05.736Z,10.42
2023-03-13T17:15:34.062Z,10.41
2023-03-13T17:18:02.683Z,10.40
2023-03-13T17:20:31.029Z,10.41
2023-03-13T17:23:01.278Z,10.41
2023-03-13T17:25:29.743Z,10.39
2023-03-13T17:27:57.951Z,10.38
2023-03-13T17:30:30.502Z,10.36
2023-03-13T17:32:59.964Z,10.36
2023-03-13T17:35:28.376Z,10.36
2023-03-13T17:37:56.693Z,10.37
2023-03-13T17:40:28.140Z,10.36
2023-03-13T17:42:57.497Z,10.37
2023-03-13T17:45:25.750Z,10.35
2023-03-13T17:47:54.750Z,10.34
2023-03-13T17:50:27.429Z,10.34
2023-03-13T17:52:56.463Z,10.34
2023-03-13T17:55:25.406Z,10.35
2023-03-13T17:57:53.902Z,10.36
2023-03-13T18:00:22.229Z,10.38
2023-03-13T18:02:50.994Z,10.38
2023-03-13T18:05:19.397Z,10.37
2023-03-13T18:07:49.341Z,10.36
2023-03-13T18:10:22.190Z,10.36
2023-03-13T18:12:51.749Z,10.36
2023-03-13T18:15:22.178Z,10.39
2023-03-13T18:17:51.252Z,10.40
2023-03-13T18:20:26.167Z,10.40
2023-03-13T18:22:59.628Z,10.38
2023-03-13T18:25:29.450Z,10.38
2023-03-13T18:27:58.092Z,10.37
2023-03-13T18:30:26.920Z,10.37
2023-03-13T18:32:55.269Z,10.38
2023-03-13T18:35:23.602Z,10.38
2023-03-13T18:37:51.835Z,10.38
2023-03-13T18:40:27.223Z,10.39
2023-03-13T18:42:55.625Z,10.39
2023-03-13T18:45:25.671Z,10.39
2023-03-13T18:47:54.133Z,10.38
2023-03-13T18:50:31.566Z,10.35
2023-03-13T18:53:00.569Z,10.34
2023-03-13T18:55:31.386Z,10.34
2023-03-13T18:57:59.711Z,10.33
2023-03-13T19:00:30.640Z,10.34
2023-03-13T19:02:59.524Z,10.34
2023-03-13T19:05:27.952Z,10.36
2023-03-13T19:07:56.354Z,10.37
2023-03-13T19:10:26.185Z,10.36
2023-03-13T19:12:56.524Z,10.36
2023-03-13T19:15:29.195Z,10.36
2023-03-13T19:18:02.590Z,10.37
2023-03-13T19:20:32.355Z,10.40
2023-03-13T19:23:01.017Z,10.39
2023-03-13T19:25:29.765Z,10.39
2023-03-13T19:27:58.145Z,10.41
2023-03-13T19:30:27.000Z,10.42
2023-03-13T19:32:55.354Z,10.42
2023-03-13T19:35:23.682Z,10.43
2023-03-13T19:37:52.094Z,10.42
2023-03-13T19:40:28.908Z,10.42
2023-03-13T19:42:57.225Z,10.41
2023-03-13T19:45:26.536Z,10.41
2023-03-13T19:47:54.909Z,10.41
2023-03-13T19:50:27.861Z,10.42
2023-03-13T19:52:56.230Z,10.43
2023-03-13T19:55:24.549Z,10.44
2023-03-13T19:57:53.113Z,10.45
2023-03-13T20:00:27.894Z,10.46
2023-03-13T20:02:56.234Z,10.46
2023-03-13T20:05:28.930Z,10.46
2023-03-13T20:07:57.582Z,10.45
2023-03-13T20:10:25.929Z,10.45
2023-03-13T20:12:54.206Z,10.45
2023-03-13T20:15:22.489Z,10.46
2023-03-13T20:17:50.900Z,10.48
2023-03-13T20:20:19.317Z,10.49
2023-03-13T20:22:47.680Z,10.50
2023-03-13T20:25:16.407Z,10.51
2023-03-13T20:27:44.769Z,10.51
2023-03-13T20:30:13.354Z,10.52
2023-03-13T20:32:53.038Z,10.52
2023-03-13T20:35:28.551Z,10.53
2023-03-13T20:37:59.889Z,10.55
2023-03-13T20:40:28.618Z,10.57
2023-03-13T20:42:58.392Z,10.57
2023-03-13T20:45:30.121Z,10.57
2023-03-13T20:47:59.442Z,10.57
2023-03-13T20:50:28.027Z,10.57
2023-03-13T20:52:56.492Z,10.58
2023-03-13T20:55:24.828Z,10.59
2023-03-13T20:57:53.061Z,10.61
2023-03-13T21:00:22.304Z,10.62
2023-03-13T21:02:50.784Z,10.64
2023-03-13T21:05:19.144Z,10.65
2023-03-13T21:07:48.264Z,10.63
2023-03-13T21:10:18.384Z,10.62
2023-03-13T21:12:46.952Z,10.62
2023-03-13T21:15:15.795Z,10.63
2023-03-13T21:17:44.095Z,10.63
2023-03-13T21:20:12.819Z,10.64
2023-03-13T21:22:42.962Z,10.65
2023-03-13T21:25:12.865Z,10.65
2023-03-13T21:27:43.969Z,10.64
2023-03-13T21:30:17.803Z,10.63
2023-03-13T21:32:47.203Z,10.63
2023-03-13T21:35:16.872Z,10.62
2023-03-13T21:37:49.272Z,10.62
2023-03-13T21:40:17.741Z,10.62
2023-03-13T21:42:46.075Z,10.63
2023-03-13T21:45:14.389Z,10.62
2023-03-13T21:47:42.698Z,10.61
2023-03-13T21:50:12.492Z,10.61
2023-03-13T21:52:42.500Z,10.60
2023-03-13T21:55:12.557Z,10.57
2023-03-13T21:57:41.306Z,10.55
2023-03-13T22:00:10.729Z,10.54
2023-03-13T22:02:39.082Z,10.55
2023-03-13T22:05:08.627Z,10.54
2023-03-13T22:07:36.932Z,10.53
2023-03-13T22:10:05.832Z,10.52
2023-03-13T22:12:34.116Z,10.50
2023-03-13T22:15:02.431Z,10.49
2023-03-13T22:17:31.907Z,10.49
2023-03-13T22:20:00.174Z,10.49
2023-03-13T22:22:28.542Z,10.49
2023-03-13T22:24:56.827Z,10.50
2023-03-13T22:27:25.756Z,10.50
2023-03-13T22:29:54.120Z,10.50
2023-03-13T22:32:22.522Z,10.51
2023-03-13T22:34:50.858Z,10.50
2023-03-13T22:37:21.998Z,10.49
2023-03-13T22:39:54.085Z,10.47
2023-03-13T22:42:22.883Z,10.48
2023-03-13T22:44:51.109Z,10.47
2023-03-13T22:47:19.434Z,10.49
2023-03-13T22:49:47.827Z,10.49
2023-03-13T22:52:16.147Z,10.49
2023-03-13T22:54:46.703Z,10.49
2023-03-13T22:57:14.919Z,10.50
2023-03-13T22:59:43.193Z,10.50
2023-03-13T23:02:12.393Z,10.51
2023-03-13T23:04:40.619Z,10.52
2023-03-13T23:07:08.917Z,10.52
2023-03-13T23:09:37.332Z,10.51
2023-03-13T23:12:05.884Z,10.49
2023-03-13T23:14:34.608Z,10.49
2023-03-13T23:17:02.901Z,10.49
2023-03-13T23:19:34.577Z,10.49
2023-03-13T23:22:03.020Z,10.50
2023-03-13T23:24:31.294Z,10.50
2023-03-13T23:26:59.541Z,10.51
2023-03-13T23:29:27.905Z,10.50
2023-03-13T23:31:56.262Z,10.50
2023-03-13T23:34:24.940Z,10.51
2023-03-13T23:36:54.616Z,10.52
2023-03-13T23:39:22.938Z,10.52
2023-03-13T23:41:51.175Z,10.52
2023-03-13T23:44:20.135Z,10.51
2023-03-13T23:46:48.445Z,10.52
2023-03-13T23:49:16.752Z,10.51
2023-03-13T23:51:45.041Z,10.51
2023-03-13T23:54:13.263Z,10.49
2023-03-13T23:56:41.666Z,10.47
2023-03-13T23:59:09.904Z,10.46
